sensor_id;sensor_type;location;lat;lon;timestamp;temperature;humidity
22456;DHT22;11395;53.204;6.502;2022-12-29T00:02:24;22.90;60.80
22456;DHT22;11395;53.204;6.502;2022-12-29T00:04:50;22.80;60.80
22456;DHT22;11395;53.204;6.502;2022-12-29T00:07:17;22.80;60.90
22456;DHT22;11395;53.204;6.502;2022-12-29T00:09:43;22.80;60.80
22456;DHT22;11395;53.204;6.502;2022-12-29T00:12:10;22.70;60.90
22456;DHT22;11395;53.204;6.502;2022-12-29T00:14:36;22.70;61.00
22456;DHT22;11395;53.204;6.502;2022-12-29T00:17:20;22.70;61.00
22456;DHT22;11395;53.204;6.502;2022-12-29T00:19:46;22.60;61.10
22456;DHT22;11395;53.204;6.502;2022-12-29T00:22:31;22.60;61.20
22456;DHT22;11395;53.204;6.502;2022-12-29T00:25:16;22.60;61.20
22456;DHT22;11395;53.204;6.502;2022-12-29T00:28:00;22.50;61.30
22456;DHT22;11395;53.204;6.502;2022-12-29T00:30:45;22.50;61.70
22456;DHT22;11395;53.204;6.502;2022-12-29T00:33:31;22.50;61.50
22456;DHT22;11395;53.204;6.502;2022-12-29T00:36:28;22.40;61.50
22456;DHT22;11395;53.204;6.502;2022-12-29T00:39:01;22.40;61.60
22456;DHT22;11395;53.204;6.502;2022-12-29T00:41:47;22.40;61.70
22456;DHT22;11395;53.204;6.502;2022-12-29T00:44:32;22.30;61.80
22456;DHT22;11395;53.204;6.502;2022-12-29T00:46:58;22.30;61.80
22456;DHT22;11395;53.204;6.502;2022-12-29T00:49:29;22.30;62.80
22456;DHT22;11395;53.204;6.502;2022-12-29T00:52:06;22.30;62.10
22456;DHT22;11395;53.204;6.502;2022-12-29T00:54:34;22.20;62.10
22456;DHT22;11395;53.204;6.502;2022-12-29T00:57:02;22.20;62.30
22456;DHT22;11395;53.204;6.502;2022-12-29T00:59:28;22.10;62.30
22456;DHT22;11395;53.204;6.502;2022-12-29T01:01:57;22.10;62.20
22456;DHT22;11395;53.204;6.502;2022-12-29T01:04:25;22.10;62.40
22456;DHT22;11395;53.204;6.502;2022-12-29T01:06:52;22.10;62.40
22456;DHT22;11395;53.204;6.502;2022-12-29T01:09:19;22.10;62.50
22456;DHT22;11395;53.204;6.502;2022-12-29T01:12:04;22.10;62.60
22456;DHT22;11395;53.204;6.502;2022-12-29T01:14:31;22.00;62.50
22456;DHT22;11395;53.204;6.502;2022-12-29T01:16:58;22.00;62.40
22456;DHT22;11395;53.204;6.502;2022-12-29T01:19:24;22.00;62.50
22456;DHT22;11395;53.204;6.502;2022-12-29T01:21:51;22.00;62.50
22456;DHT22;11395;53.204;6.502;2022-12-29T01:24:19;21.90;62.30
22456;DHT22;11395;53.204;6.502;2022-12-29T01:26:46;21.90;62.50
22456;DHT22;11395;53.204;6.502;2022-12-29T01:29:13;21.90;62.40
22456;DHT22;11395;53.204;6.502;2022-12-29T01:31:40;21.90;62.50
22456;DHT22;11395;53.204;6.502;2022-12-29T01:34:08;21.90;62.50
22456;DHT22;11395;53.204;6.502;2022-12-29T01:36:34;21.80;62.40
22456;DHT22;11395;53.204;6.502;2022-12-29T01:39:02;21.80;62.40
22456;DHT22;11395;53.204;6.502;2022-12-29T01:41:28;21.80;62.50
22456;DHT22;11395;53.204;6.502;2022-12-29T01:43:57;21.80;62.40
22456;DHT22;11395;53.204;6.502;2022-12-29T01:51:54;21.70;62.30
22456;DHT22;11395;53.204;6.502;2022-12-29T01:56:55;21.70;62.40
22456;DHT22;11395;53.204;6.502;2022-12-29T01:59:26;21.70;62.40
22456;DHT22;11395;53.204;6.502;2022-12-29T02:01:53;21.70;62.40
22456;DHT22;11395;53.204;6.502;2022-12-29T02:04:19;21.70;62.50
22456;DHT22;11395;53.204;6.502;2022-12-29T02:06:52;21.70;62.40
22456;DHT22;11395;53.204;6.502;2022-12-29T02:09:20;21.70;62.50
22456;DHT22;11395;53.204;6.502;2022-12-29T02:11:46;21.70;62.50
22456;DHT22;11395;53.204;6.502;2022-12-29T02:14:14;21.70;62.50
22456;DHT22;11395;53.204;6.502;2022-12-29T02:19:54;21.70;62.60
22456;DHT22;11395;53.204;6.502;2022-12-29T02:31:08;21.50;62.60
22456;DHT22;11395;53.204;6.502;2022-12-29T02:36:32;21.50;62.70
22456;DHT22;11395;53.204;6.502;2022-12-29T02:39:21;21.50;62.80
22456;DHT22;11395;53.204;6.502;2022-12-29T02:42:00;21.40;62.80
22456;DHT22;11395;53.204;6.502;2022-12-29T02:44:40;21.40;62.80
22456;DHT22;11395;53.204;6.502;2022-12-29T02:47:21;21.40;62.90
22456;DHT22;11395;53.204;6.502;2022-12-29T02:49:57;21.30;63.00
22456;DHT22;11395;53.204;6.502;2022-12-29T02:52:33;21.30;79.20
22456;DHT22;11395;53.204;6.502;2022-12-29T02:55:00;21.30;63.10
22456;DHT22;11395;53.204;6.502;2022-12-29T02:59:58;21.30;63.00
22456;DHT22;11395;53.204;6.502;2022-12-29T03:13:22;21.10;63.60
22456;DHT22;11395;53.204;6.502;2022-12-29T03:19:06;21.00;63.70
22456;DHT22;11395;53.204;6.502;2022-12-29T03:24:27;21.00;63.80
22456;DHT22;11395;53.204;6.502;2022-12-29T03:26:59;20.90;63.90
22456;DHT22;11395;53.204;6.502;2022-12-29T03:29:33;20.90;63.70
22456;DHT22;11395;53.204;6.502;2022-12-29T03:32:02;20.90;63.80
22456;DHT22;11395;53.204;6.502;2022-12-29T03:34:30;20.90;64.00
22456;DHT22;11395;53.204;6.502;2022-12-29T03:37:04;20.80;64.20
22456;DHT22;11395;53.204;6.502;2022-12-29T03:39:32;20.80;64.40
22456;DHT22;11395;53.204;6.502;2022-12-29T03:42:02;20.80;64.30
22456;DHT22;11395;53.204;6.502;2022-12-29T03:44:35;20.80;64.40
22456;DHT22;11395;53.204;6.502;2022-12-29T03:47:03;20.70;64.40
22456;DHT22;11395;53.204;6.502;2022-12-29T03:49:29;20.70;64.30
22456;DHT22;11395;53.204;6.502;2022-12-29T03:51:56;20.70;64.50
22456;DHT22;11395;53.204;6.502;2022-12-29T03:54:23;20.70;64.50
22456;DHT22;11395;53.204;6.502;2022-12-29T03:56:50;21.00;64.90
22456;DHT22;11395;53.204;6.502;2022-12-29T03:59:22;20.60;64.70
22456;DHT22;11395;53.204;6.502;2022-12-29T04:01:48;20.60;64.80
22456;DHT22;11395;53.204;6.502;2022-12-29T04:04:15;20.50;64.80
22456;DHT22;11395;53.204;6.502;2022-12-29T04:06:41;20.50;64.90
22456;DHT22;11395;53.204;6.502;2022-12-29T04:09:09;20.50;64.80
22456;DHT22;11395;53.204;6.502;2022-12-29T04:11:41;20.50;64.90
22456;DHT22;11395;53.204;6.502;2022-12-29T04:14:07;20.50;64.90
22456;DHT22;11395;53.204;6.502;2022-12-29T04:16:34;20.50;64.90
22456;DHT22;11395;53.204;6.502;2022-12-29T04:19:03;20.50;64.80
22456;DHT22;11395;53.204;6.502;2022-12-29T04:21:29;20.40;65.00
22456;DHT22;11395;53.204;6.502;2022-12-29T04:23:56;20.40;65.10
22456;DHT22;11395;53.204;6.502;2022-12-29T04:26:22;20.40;65.00
22456;DHT22;11395;53.204;6.502;2022-12-29T04:29:05;20.40;65.00
22456;DHT22;11395;53.204;6.502;2022-12-29T04:31:52;20.40;65.20
22456;DHT22;11395;53.204;6.502;2022-12-29T04:34:18;20.40;65.30
22456;DHT22;11395;53.204;6.502;2022-12-29T04:36:46;20.30;65.10
22456;DHT22;11395;53.204;6.502;2022-12-29T04:39:12;20.30;65.10
22456;DHT22;11395;53.204;6.502;2022-12-29T04:41:40;20.40;64.70
22456;DHT22;11395;53.204;6.502;2022-12-29T04:44:09;20.40;64.80
22456;DHT22;11395;53.204;6.502;2022-12-29T04:46:53;20.40;64.70
22456;DHT22;11395;53.204;6.502;2022-12-29T04:49:35;20.50;64.60
22456;DHT22;11395;53.204;6.502;2022-12-29T04:52:14;20.50;64.70
22456;DHT22;11395;53.204;6.502;2022-12-29T04:54:41;20.70;64.70
22456;DHT22;11395;53.204;6.502;2022-12-29T04:57:13;20.80;64.40
22456;DHT22;11395;53.204;6.502;2022-12-29T04:59:39;20.90;64.00
22456;DHT22;11395;53.204;6.502;2022-12-29T05:02:07;21.00;63.80
22456;DHT22;11395;53.204;6.502;2022-12-29T05:04:34;21.10;63.60
22456;DHT22;11395;53.204;6.502;2022-12-29T05:07:00;21.20;63.30
22456;DHT22;11395;53.204;6.502;2022-12-29T05:09:27;21.40;63.10
22456;DHT22;11395;53.204;6.502;2022-12-29T05:11:53;21.50;62.90
22456;DHT22;11395;53.204;6.502;2022-12-29T05:14:20;21.60;62.60
22456;DHT22;11395;53.204;6.502;2022-12-29T05:16:46;21.80;62.30
22456;DHT22;11395;53.204;6.502;2022-12-29T05:19:12;21.90;62.30
22456;DHT22;11395;53.204;6.502;2022-12-29T05:21:38;22.00;62.10
22456;DHT22;11395;53.204;6.502;2022-12-29T05:24:05;22.10;62.00
22456;DHT22;11395;53.204;6.502;2022-12-29T05:26:31;22.10;61.80
22456;DHT22;11395;53.204;6.502;2022-12-29T05:29:11;22.20;61.70
22456;DHT22;11395;53.204;6.502;2022-12-29T05:31:37;22.20;61.50
22456;DHT22;11395;53.204;6.502;2022-12-29T05:34:05;22.30;61.50
22456;DHT22;11395;53.204;6.502;2022-12-29T05:36:31;22.30;61.30
22456;DHT22;11395;53.204;6.502;2022-12-29T05:38:59;22.40;61.20
22456;DHT22;11395;53.204;6.502;2022-12-29T05:41:26;22.40;61.10
22456;DHT22;11395;53.204;6.502;2022-12-29T05:44:21;22.50;61.10
22456;DHT22;11395;53.204;6.502;2022-12-29T05:47:08;22.60;61.00
22456;DHT22;11395;53.204;6.502;2022-12-29T05:49:50;22.70;60.90
22456;DHT22;11395;53.204;6.502;2022-12-29T05:52:52;22.70;60.70
22456;DHT22;11395;53.204;6.502;2022-12-29T05:55:19;22.80;60.40
22456;DHT22;11395;53.204;6.502;2022-12-29T05:57:47;23.00;60.40
22456;DHT22;11395;53.204;6.502;2022-12-29T06:00:15;23.10;60.00
22456;DHT22;11395;53.204;6.502;2022-12-29T06:02:43;23.20;60.00
22456;DHT22;11395;53.204;6.502;2022-12-29T06:05:09;23.30;60.50
22456;DHT22;11395;53.204;6.502;2022-12-29T06:07:37;23.50;59.60
22456;DHT22;11395;53.204;6.502;2022-12-29T06:10:05;23.60;59.70
22456;DHT22;11395;53.204;6.502;2022-12-29T06:12:36;23.70;59.50
22456;DHT22;11395;53.204;6.502;2022-12-29T06:15:04;23.80;59.40
22456;DHT22;11395;53.204;6.502;2022-12-29T06:17:31;23.90;59.00
22456;DHT22;11395;53.204;6.502;2022-12-29T06:19:58;23.90;59.00
22456;DHT22;11395;53.204;6.502;2022-12-29T06:22:25;24.00;58.80
22456;DHT22;11395;53.204;6.502;2022-12-29T06:24:51;24.00;58.70
22456;DHT22;11395;53.204;6.502;2022-12-29T06:27:18;24.10;58.30
22456;DHT22;11395;53.204;6.502;2022-12-29T06:29:44;24.10;58.50
22456;DHT22;11395;53.204;6.502;2022-12-29T06:32:12;24.10;58.50
22456;DHT22;11395;53.204;6.502;2022-12-29T06:34:43;24.10;58.50
22456;DHT22;11395;53.204;6.502;2022-12-29T06:37:11;24.20;58.50
22456;DHT22;11395;53.204;6.502;2022-12-29T06:39:37;24.10;58.30
22456;DHT22;11395;53.204;6.502;2022-12-29T06:42:06;24.10;58.40
22456;DHT22;11395;53.204;6.502;2022-12-29T06:44:55;24.10;58.40
22456;DHT22;11395;53.204;6.502;2022-12-29T06:47:24;24.10;58.40
22456;DHT22;11395;53.204;6.502;2022-12-29T06:49:50;24.10;58.40
22456;DHT22;11395;53.204;6.502;2022-12-29T06:52:17;24.10;58.40
22456;DHT22;11395;53.204;6.502;2022-12-29T06:54:43;24.00;58.40
22456;DHT22;11395;53.204;6.502;2022-12-29T06:57:09;24.00;58.40
22456;DHT22;11395;53.204;6.502;2022-12-29T06:59:36;23.90;58.50
22456;DHT22;11395;53.204;6.502;2022-12-29T07:02:02;23.90;58.40
22456;DHT22;11395;53.204;6.502;2022-12-29T07:04:28;23.80;58.60
22456;DHT22;11395;53.204;6.502;2022-12-29T07:06:55;23.80;58.60
22456;DHT22;11395;53.204;6.502;2022-12-29T07:09:21;23.80;58.70
22456;DHT22;11395;53.204;6.502;2022-12-29T07:11:47;23.70;58.80
22456;DHT22;11395;53.204;6.502;2022-12-29T07:14:13;23.70;59.00
22456;DHT22;11395;53.204;6.502;2022-12-29T07:16:39;23.60;58.00
22456;DHT22;11395;53.204;6.502;2022-12-29T07:19:06;23.50;58.20
22456;DHT22;11395;53.204;6.502;2022-12-29T07:21:32;23.40;58.40
22456;DHT22;11395;53.204;6.502;2022-12-29T07:23:58;23.30;58.50
22456;DHT22;11395;53.204;6.502;2022-12-29T07:26:24;23.30;58.80
22456;DHT22;11395;53.204;6.502;2022-12-29T07:28:50;23.30;58.80
22456;DHT22;11395;53.204;6.502;2022-12-29T07:31:19;23.30;58.80
22456;DHT22;11395;53.204;6.502;2022-12-29T07:33:46;23.40;59.10
22456;DHT22;11395;53.204;6.502;2022-12-29T07:36:14;23.40;59.20
22456;DHT22;11395;53.204;6.502;2022-12-29T07:38:41;23.50;59.20
22456;DHT22;11395;53.204;6.502;2022-12-29T07:41:08;23.60;59.20
22456;DHT22;11395;53.204;6.502;2022-12-29T07:43:34;23.70;59.00
22456;DHT22;11395;53.204;6.502;2022-12-29T07:46:23;23.70;58.90
22456;DHT22;11395;53.204;6.502;2022-12-29T07:48:49;23.80;58.80
22456;DHT22;11395;53.204;6.502;2022-12-29T07:51:15;23.80;58.70
22456;DHT22;11395;53.204;6.502;2022-12-29T07:53:41;23.90;58.50
22456;DHT22;11395;53.204;6.502;2022-12-29T07:56:08;23.90;58.50
22456;DHT22;11395;53.204;6.502;2022-12-29T07:58:34;23.90;58.40
22456;DHT22;11395;53.204;6.502;2022-12-29T08:01:00;23.90;58.20
22456;DHT22;11395;53.204;6.502;2022-12-29T08:03:26;23.90;58.30
22456;DHT22;11395;53.204;6.502;2022-12-29T08:05:52;23.90;58.30
22456;DHT22;11395;53.204;6.502;2022-12-29T08:08:20;23.90;58.30
22456;DHT22;11395;53.204;6.502;2022-12-29T08:10:46;23.90;58.30
22456;DHT22;11395;53.204;6.502;2022-12-29T08:13:12;23.90;58.40
22456;DHT22;11395;53.204;6.502;2022-12-29T08:15:38;23.80;58.30
22456;DHT22;11395;53.204;6.502;2022-12-29T08:18:04;23.80;58.30
22456;DHT22;11395;53.204;6.502;2022-12-29T08:20:31;23.80;58.50
22456;DHT22;11395;53.204;6.502;2022-12-29T08:22:57;23.80;58.40
22456;DHT22;11395;53.204;6.502;2022-12-29T08:25:24;23.80;58.50
22456;DHT22;11395;53.204;6.502;2022-12-29T08:27:50;23.70;58.50
22456;DHT22;11395;53.204;6.502;2022-12-29T08:30:16;23.70;58.60
22456;DHT22;11395;53.204;6.502;2022-12-29T08:32:42;23.70;58.70
22456;DHT22;11395;53.204;6.502;2022-12-29T08:35:09;23.70;58.80
22456;DHT22;11395;53.204;6.502;2022-12-29T08:37:35;23.60;58.80
22456;DHT22;11395;53.204;6.502;2022-12-29T08:40:01;23.60;58.90
22456;DHT22;11395;53.204;6.502;2022-12-29T08:42:30;23.60;59.00
22456;DHT22;11395;53.204;6.502;2022-12-29T08:44:58;23.50;59.00
22456;DHT22;11395;53.204;6.502;2022-12-29T08:47:24;23.40;59.00
22456;DHT22;11395;53.204;6.502;2022-12-29T08:49:51;23.40;59.20
22456;DHT22;11395;53.204;6.502;2022-12-29T08:52:18;23.40;59.20
22456;DHT22;11395;53.204;6.502;2022-12-29T08:54:44;23.30;59.30
22456;DHT22;11395;53.204;6.502;2022-12-29T08:57:10;23.30;59.30
22456;DHT22;11395;53.204;6.502;2022-12-29T08:59:44;23.30;59.40
22456;DHT22;11395;53.204;6.502;2022-12-29T09:02:12;23.40;59.50
22456;DHT22;11395;53.204;6.502;2022-12-29T09:04:39;23.40;59.60
22456;DHT22;11395;53.204;6.502;2022-12-29T09:07:05;23.40;59.70
22456;DHT22;11395;53.204;6.502;2022-12-29T09:09:32;23.50;59.70
22456;DHT22;11395;53.204;6.502;2022-12-29T09:11:58;23.60;59.80
22456;DHT22;11395;53.204;6.502;2022-12-29T09:14:24;23.70;59.70
22456;DHT22;11395;53.204;6.502;2022-12-29T09:16:52;23.70;59.60
22456;DHT22;11395;53.204;6.502;2022-12-29T09:19:37;23.80;59.50
22456;DHT22;11395;53.204;6.502;2022-12-29T09:22:03;23.80;59.40
22456;DHT22;11395;53.204;6.502;2022-12-29T09:24:29;23.80;59.20
22456;DHT22;11395;53.204;6.502;2022-12-29T09:26:56;23.80;59.30
22456;DHT22;11395;53.204;6.502;2022-12-29T09:29:22;23.80;59.40
22456;DHT22;11395;53.204;6.502;2022-12-29T09:31:49;23.80;59.30
22456;DHT22;11395;53.204;6.502;2022-12-29T09:34:15;23.80;59.20
22456;DHT22;11395;53.204;6.502;2022-12-29T09:36:41;23.80;59.20
22456;DHT22;11395;53.204;6.502;2022-12-29T09:39:08;23.80;59.30
22456;DHT22;11395;53.204;6.502;2022-12-29T09:41:47;23.80;59.50
22456;DHT22;11395;53.204;6.502;2022-12-29T09:47:13;23.70;59.50
22456;DHT22;11395;53.204;6.502;2022-12-29T09:52:24;23.70;59.50
22456;DHT22;11395;53.204;6.502;2022-12-29T09:55:15;23.70;59.60
22456;DHT22;11395;53.204;6.502;2022-12-29T10:00:19;23.60;59.60
22456;DHT22;11395;53.204;6.502;2022-12-29T10:11:01;23.40;59.70
22456;DHT22;11395;53.204;6.502;2022-12-29T10:16:23;23.30;60.00
22456;DHT22;11395;53.204;6.502;2022-12-29T10:24:38;23.20;60.20
22456;DHT22;11395;53.204;6.502;2022-12-29T10:27:09;23.10;60.40
22456;DHT22;11395;53.204;6.502;2022-12-29T10:29:52;23.20;60.50
22456;DHT22;11395;53.204;6.502;2022-12-29T10:32:39;23.20;60.60
22456;DHT22;11395;53.204;6.502;2022-12-29T10:35:14;23.20;60.70
22456;DHT22;11395;53.204;6.502;2022-12-29T10:37:43;23.20;60.70
22456;DHT22;11395;53.204;6.502;2022-12-29T10:40:24;23.30;60.80
22456;DHT22;11395;53.204;6.502;2022-12-29T10:42:54;23.30;60.70
22456;DHT22;11395;53.204;6.502;2022-12-29T10:45:22;23.40;60.70
22456;DHT22;11395;53.204;6.502;2022-12-29T10:48:03;23.50;60.60
22456;DHT22;11395;53.204;6.502;2022-12-29T10:50:32;23.60;60.30
22456;DHT22;11395;53.204;6.502;2022-12-29T10:53:01;23.60;60.20
22456;DHT22;11395;53.204;6.502;2022-12-29T10:55:32;23.70;60.00
22456;DHT22;11395;53.204;6.502;2022-12-29T10:58:02;23.70;59.90
22456;DHT22;11395;53.204;6.502;2022-12-29T11:00:31;23.70;59.80
22456;DHT22;11395;53.204;6.502;2022-12-29T11:03:05;23.70;59.70
22456;DHT22;11395;53.204;6.502;2022-12-29T11:05:49;23.80;59.60
22456;DHT22;11395;53.204;6.502;2022-12-29T11:08:21;23.80;59.50
22456;DHT22;11395;53.204;6.502;2022-12-29T11:10:58;23.80;59.60
22456;DHT22;11395;53.204;6.502;2022-12-29T11:13:28;23.80;59.40
22456;DHT22;11395;53.204;6.502;2022-12-29T11:15:55;23.80;60.10
22456;DHT22;11395;53.204;6.502;2022-12-29T11:18:38;23.80;59.50
22456;DHT22;11395;53.204;6.502;2022-12-29T11:24:03;23.80;59.50
22456;DHT22;11395;53.204;6.502;2022-12-29T11:26:31;23.80;59.60
22456;DHT22;11395;53.204;6.502;2022-12-29T11:29:08;23.80;59.50
22456;DHT22;11395;53.204;6.502;2022-12-29T11:31:45;23.80;59.60
22456;DHT22;11395;53.204;6.502;2022-12-29T11:34:21;23.80;59.50
22456;DHT22;11395;53.204;6.502;2022-12-29T11:36:49;23.70;59.40
22456;DHT22;11395;53.204;6.502;2022-12-29T11:42:15;23.60;59.50
22456;DHT22;11395;53.204;6.502;2022-12-29T11:44:47;23.60;59.50
22456;DHT22;11395;53.204;6.502;2022-12-29T11:47:28;23.60;59.70
22456;DHT22;11395;53.204;6.502;2022-12-29T11:49:59;23.50;59.60
22456;DHT22;11395;53.204;6.502;2022-12-29T11:52:28;23.50;59.60
22456;DHT22;11395;53.204;6.502;2022-12-29T11:54:56;23.40;59.60
22456;DHT22;11395;53.204;6.502;2022-12-29T11:57:24;23.40;59.60
22456;DHT22;11395;53.204;6.502;2022-12-29T11:59:55;23.40;59.80
22456;DHT22;11395;53.204;6.502;2022-12-29T12:02:54;23.30;60.50
22456;DHT22;11395;53.204;6.502;2022-12-29T12:05:49;23.20;59.80
22456;DHT22;11395;53.204;6.502;2022-12-29T12:08:47;23.20;60.10
22456;DHT22;11395;53.204;6.502;2022-12-29T12:14:10;23.20;60.10
22456;DHT22;11395;53.204;6.502;2022-12-29T12:17:19;23.20;60.10
22456;DHT22;11395;53.204;6.502;2022-12-29T12:19:49;23.30;60.30
22456;DHT22;11395;53.204;6.502;2022-12-29T12:22:32;23.30;60.30
22456;DHT22;11395;53.204;6.502;2022-12-29T12:25:18;23.40;60.20
22456;DHT22;11395;53.204;6.502;2022-12-29T12:30:40;23.60;60.10
22456;DHT22;11395;53.204;6.502;2022-12-29T12:36:16;23.70;60.00
22456;DHT22;11395;53.204;6.502;2022-12-29T12:47:15;23.80;59.90
22456;DHT22;11395;53.204;6.502;2022-12-29T13:00:38;23.70;59.80
22456;DHT22;11395;53.204;6.502;2022-12-29T13:03:20;23.70;59.70
22456;DHT22;11395;53.204;6.502;2022-12-29T13:06:06;23.70;59.80
22456;DHT22;11395;53.204;6.502;2022-12-29T13:09:02;23.70;59.80
22456;DHT22;11395;53.204;6.502;2022-12-29T13:11:58;23.60;59.80
22456;DHT22;11395;53.204;6.502;2022-12-29T13:14:49;23.60;59.80
22456;DHT22;11395;53.204;6.502;2022-12-29T13:22:58;23.50;60.00
22456;DHT22;11395;53.204;6.502;2022-12-29T13:33:14;23.30;60.00
22456;DHT22;11395;53.204;6.502;2022-12-29T13:35:57;23.30;60.00
22456;DHT22;11395;53.204;6.502;2022-12-29T13:38:37;23.20;60.10
22456;DHT22;11395;53.204;6.502;2022-12-29T13:44:27;23.10;60.40
22456;DHT22;11395;53.204;6.502;2022-12-29T13:46:56;23.10;60.40
22456;DHT22;11395;53.204;6.502;2022-12-29T13:49:23;23.10;60.40
22456;DHT22;11395;53.204;6.502;2022-12-29T13:52:32;23.20;60.50
22456;DHT22;11395;53.204;6.502;2022-12-29T14:00:14;23.40;60.20
22456;DHT22;11395;53.204;6.502;2022-12-29T14:07:46;23.50;60.00
22456;DHT22;11395;53.204;6.502;2022-12-29T14:10:36;23.50;59.80
22456;DHT22;11395;53.204;6.502;2022-12-29T14:15:44;23.60;59.80
22456;DHT22;11395;53.204;6.502;2022-12-29T14:18:18;23.60;59.80
22456;DHT22;11395;53.204;6.502;2022-12-29T14:21:08;23.60;59.80
22456;DHT22;11395;53.204;6.502;2022-12-29T14:23:41;23.60;59.70
22456;DHT22;11395;53.204;6.502;2022-12-29T14:31:05;23.50;59.80
22456;DHT22;11395;53.204;6.502;2022-12-29T14:33:33;23.40;59.70
22456;DHT22;11395;53.204;6.502;2022-12-29T14:36:26;23.40;59.70
22456;DHT22;11395;53.204;6.502;2022-12-29T14:38:52;23.40;59.80
22456;DHT22;11395;53.204;6.502;2022-12-29T14:43:59;23.30;59.80
22456;DHT22;11395;53.204;6.502;2022-12-29T14:49:21;23.20;59.80
22456;DHT22;11395;53.204;6.502;2022-12-29T14:51:52;23.20;59.90
22456;DHT22;11395;53.204;6.502;2022-12-29T14:57:06;23.10;59.90
22456;DHT22;11395;53.204;6.502;2022-12-29T14:59:35;23.10;60.00
22456;DHT22;11395;53.204;6.502;2022-12-29T15:02:05;23.00;60.00
22456;DHT22;11395;53.204;6.502;2022-12-29T15:04:38;23.00;60.10
22456;DHT22;11395;53.204;6.502;2022-12-29T15:07:09;22.90;60.10
22456;DHT22;11395;53.204;6.502;2022-12-29T15:09:45;22.90;60.20
22456;DHT22;11395;53.204;6.502;2022-12-29T15:12:23;22.90;60.20
22456;DHT22;11395;53.204;6.502;2022-12-29T15:14:56;22.90;60.30
22456;DHT22;11395;53.204;6.502;2022-12-29T15:17:33;23.00;60.40
22456;DHT22;11395;53.204;6.502;2022-12-29T15:20:14;23.10;60.30
22456;DHT22;11395;53.204;6.502;2022-12-29T15:22:48;23.10;60.30
22456;DHT22;11395;53.204;6.502;2022-12-29T15:25:17;23.20;60.20
22456;DHT22;11395;53.204;6.502;2022-12-29T15:27:52;23.30;60.30
22456;DHT22;11395;53.204;6.502;2022-12-29T15:30:19;23.30;60.10
22456;DHT22;11395;53.204;6.502;2022-12-29T15:32:47;23.40;60.00
22456;DHT22;11395;53.204;6.502;2022-12-29T15:35:34;23.40;60.00
22456;DHT22;11395;53.204;6.502;2022-12-29T15:38:13;23.40;60.00
22456;DHT22;11395;53.204;6.502;2022-12-29T15:40:40;23.50;59.90
22456;DHT22;11395;53.204;6.502;2022-12-29T15:46:16;23.40;60.00
22456;DHT22;11395;53.204;6.502;2022-12-29T15:48:43;23.50;60.00
22456;DHT22;11395;53.204;6.502;2022-12-29T15:51:19;23.50;60.00
22456;DHT22;11395;53.204;6.502;2022-12-29T15:53:48;23.50;60.00
22456;DHT22;11395;53.204;6.502;2022-12-29T15:56:16;23.50;60.00
22456;DHT22;11395;53.204;6.502;2022-12-29T15:58:49;23.50;60.00
22456;DHT22;11395;53.204;6.502;2022-12-29T16:01:26;23.40;60.00
22456;DHT22;11395;53.204;6.502;2022-12-29T16:03:54;23.40;60.00
22456;DHT22;11395;53.204;6.502;2022-12-29T16:06:32;23.40;60.00
22456;DHT22;11395;53.204;6.502;2022-12-29T16:09:14;23.30;60.00
22456;DHT22;11395;53.204;6.502;2022-12-29T16:11:47;23.40;60.00
22456;DHT22;11395;53.204;6.502;2022-12-29T16:14:17;23.30;60.00
22456;DHT22;11395;53.204;6.502;2022-12-29T16:16:46;23.30;59.80
22456;DHT22;11395;53.204;6.502;2022-12-29T16:19:25;23.20;59.60
22456;DHT22;11395;53.204;6.502;2022-12-29T16:21:52;23.20;59.70
22456;DHT22;11395;53.204;6.502;2022-12-29T16:24:22;23.20;59.70
22456;DHT22;11395;53.204;6.502;2022-12-29T16:26:54;23.10;59.70
22456;DHT22;11395;53.204;6.502;2022-12-29T16:29:21;23.10;59.80
22456;DHT22;11395;53.204;6.502;2022-12-29T16:31:53;23.10;59.80
22456;DHT22;11395;53.204;6.502;2022-12-29T16:34:32;23.00;59.90
22456;DHT22;11395;53.204;6.502;2022-12-29T16:37:27;23.00;59.90
22456;DHT22;11395;53.204;6.502;2022-12-29T16:39:54;22.90;60.10
22456;DHT22;11395;53.204;6.502;2022-12-29T16:50:31;23.10;60.20
22456;DHT22;11395;53.204;6.502;2022-12-29T16:52:59;23.10;60.00
22456;DHT22;11395;53.204;6.502;2022-12-29T16:55:26;23.20;59.80
22456;DHT22;11395;53.204;6.502;2022-12-29T16:57:53;23.30;59.70
22456;DHT22;11395;53.204;6.502;2022-12-29T17:00:23;23.40;59.70
22456;DHT22;11395;53.204;6.502;2022-12-29T17:02:53;23.40;59.60
22456;DHT22;11395;53.204;6.502;2022-12-29T17:05:21;23.50;59.60
22456;DHT22;11395;53.204;6.502;2022-12-29T17:07:47;23.50;59.50
22456;DHT22;11395;53.204;6.502;2022-12-29T17:10:14;23.60;59.60
22456;DHT22;11395;53.204;6.502;2022-12-29T17:12:43;23.50;59.40
22456;DHT22;11395;53.204;6.502;2022-12-29T17:15:27;23.50;59.40
22456;DHT22;11395;53.204;6.502;2022-12-29T17:18:00;23.60;59.20
22456;DHT22;11395;53.204;6.502;2022-12-29T17:20:29;23.50;59.00
22456;DHT22;11395;53.204;6.502;2022-12-29T17:22:56;23.50;59.00
22456;DHT22;11395;53.204;6.502;2022-12-29T17:25:28;23.50;58.90
22456;DHT22;11395;53.204;6.502;2022-12-29T17:27:59;23.50;58.90
22456;DHT22;11395;53.204;6.502;2022-12-29T17:30:27;23.40;59.00
22456;DHT22;11395;53.204;6.502;2022-12-29T17:33:11;23.40;58.90
22456;DHT22;11395;53.204;6.502;2022-12-29T17:35:38;23.40;59.00
22456;DHT22;11395;53.204;6.502;2022-12-29T17:38:27;23.40;59.10
22456;DHT22;11395;53.204;6.502;2022-12-29T17:40:54;23.40;59.40
22456;DHT22;11395;53.204;6.502;2022-12-29T17:43:21;23.40;59.70
22456;DHT22;11395;53.204;6.502;2022-12-29T17:45:51;23.40;59.80
22456;DHT22;11395;53.204;6.502;2022-12-29T17:48:18;23.40;59.70
22456;DHT22;11395;53.204;6.502;2022-12-29T17:50:46;23.40;60.50
22456;DHT22;11395;53.204;6.502;2022-12-29T17:53:16;23.40;59.90
22456;DHT22;11395;53.204;6.502;2022-12-29T17:55:43;23.40;59.90
22456;DHT22;11395;53.204;6.502;2022-12-29T17:58:28;23.30;59.70
22456;DHT22;11395;53.204;6.502;2022-12-29T18:00:59;23.30;59.80
22456;DHT22;11395;53.204;6.502;2022-12-29T18:03:29;23.30;60.00
22456;DHT22;11395;53.204;6.502;2022-12-29T18:05:56;23.30;59.30
22456;DHT22;11395;53.204;6.502;2022-12-29T18:08:22;23.20;59.20
22456;DHT22;11395;53.204;6.502;2022-12-29T18:10:50;23.20;58.90
22456;DHT22;11395;53.204;6.502;2022-12-29T18:13:30;23.10;59.20
22456;DHT22;11395;53.204;6.502;2022-12-29T18:15:57;23.10;59.30
22456;DHT22;11395;53.204;6.502;2022-12-29T18:18:26;23.10;59.30
22456;DHT22;11395;53.204;6.502;2022-12-29T18:20:54;23.10;59.50
22456;DHT22;11395;53.204;6.502;2022-12-29T18:26:03;23.10;60.60
22456;DHT22;11395;53.204;6.502;2022-12-29T18:28:30;23.10;59.80
22456;DHT22;11395;53.204;6.502;2022-12-29T18:30:58;23.20;60.00
22456;DHT22;11395;53.204;6.502;2022-12-29T18:33:26;23.30;59.80
22456;DHT22;11395;53.204;6.502;2022-12-29T18:38:18;23.40;59.70